• Join FlightAware (Why Join?)
  • Login
  • US Flag 
09:08AM EDT


 

Airport Tracker/Info


-or-


 

Live Flight TrackerFlight Track Log ✈ AUB2163 ✈ 13-Apr-2013 ✈ EDDN / NUE - EDDM / MUC

Flight Track Log - Related Links

Times and Time Zones

All times are in EDT time to prevent confusion due to time zone crossing. See the AUB2163 flight status page for this flight to view local times or setup timezone preferences in your user account.

Time Position Orientation Groundspeed Altitude Reporting Facility
EDT Latitude Longitude Course Direction KTS MPH feet Rate Location/Type
12:20AM 49.3009 11.2029 158° South  Level Estimated
12:21AM 49.2515 11.2339 158° South  Level Estimated
12:22AM 49.2021 11.2649 158° South  Level Estimated
12:23AM 49.1526 11.2958 158° South  Level Estimated
12:24AM 49.1031 11.3267 158° South  Level Estimated
12:25AM 49.0536 11.3575 158° South  Level Estimated
12:26AM 49.0042 11.3882 158° South  Level Estimated
12:27AM 48.9547 11.4189 158° South  Level Estimated
12:28AM 48.9052 11.4495 158° South  Level Estimated
12:29AM 48.8557 11.4800 158° South  Level Estimated
12:30AM 48.8061 11.5105 158° South  Level Estimated
12:31AM 48.7566 11.5409 158° South  Level Estimated
12:32AM 48.7071 11.5713 158° South  Level Estimated
12:33AM 48.6576 11.6016 158° South  Level Estimated
12:34AM 48.6080 11.6319 158° South  Level Estimated
12:35AM 48.5584 11.6621 158° South  Level Estimated
12:36AM 48.5089 11.6922 158° South  Level Estimated
12:37AM 48.4593 11.7223 158° South  Level Estimated
12:38AM 48.4097 11.7523 158° South  Level Estimated
12:39AM 48.3601 11.7823 158° South  Level Estimated
12:40AM 48.3538 11.7861 158° South  Level Estimated
12:41AM 48.3538 11.7861 318° Northwest  Level Estimated
12:42AM 48.3538 11.7861 318° Northwest  Level Estimated
12:43AM 48.3538 11.7861 318° Northwest  Level Estimated
12:44AM 48.3538 11.7861 318° Northwest  Level Estimated
12:45AM 48.3538 11.7861 318° Northwest  Level Estimated
12:46AM 48.3538 11.7861 318° Northwest  Level Estimated
12:47AM 48.3538 11.7861 318° Northwest  Level Estimated
12:48AM 48.3538 11.7861 318° Northwest  Level Estimated
12:49AM 48.3538 11.7861 318° Northwest  Level Estimated
12:50AM 48.3538 11.7861 318° Northwest  Level Estimated
12:51AM 48.3538 11.7861 318° Northwest  Level Estimated
12:52AM 48.3538 11.7861 318° Northwest  Level Estimated
12:53AM 48.3538 11.7861 318° Northwest  Level Estimated
12:54AM 48.3538 11.7861 318° Northwest  Level Estimated
12:55AM 48.3538 11.7861 318° Northwest  Level Estimated